Sudbury River @ Saxonville, Ma

Sudbury River at Saxonville
 Total Drainage Area: 106 sq. miles 
 Drainage Area Controlled by Corps Dams: 0 sq. miles (0%) 
 Warning Flow/Stage: 650 cfs / 8.5 feet 
 Flood Flow/Stage: 1,010 cfs / 10.0 feet 
Date Time
(Eastern)
Stage
(ft)
Flow
(cfs)
CSM
(cfs / sq. mi.)
Jan-31 03:15 pm 8.09 526 5.0
Jan-31 02:15 pm 8.17 545 5.1
Jan-31 01:15 pm 8.27 567 5.4
Jan-31 12:15 pm 8.35 584 5.5
Jan-31 11:15 am 8.43 602 5.7
Jan-31 10:15 am 8.47 610 5.8
Jan-31 09:15 am 8.49 615 5.8
Jan-31 08:15 am 8.50 617 5.8
Jan-31 07:15 am 8.53 624 5.9
Jan-31 06:15 am 8.53 624 5.9
Jan-31 05:15 am 8.54 626 5.9
Jan-31 04:15 am 8.56 630 6.0
Jan-31 03:15 am 8.58 635 6.0
Jan-31 02:15 am 8.61 642 6.1
Jan-31 01:15 am 8.63 646 6.1
Jan-31 12:15 am 8.67 655 6.2
Jan-30 11:15 pm 8.70 662 6.3
Jan-30 10:15 pm 8.74 671 6.3
Jan-30 09:15 pm 8.79 683 6.4
Jan-30 08:15 pm 8.84 694 6.6
Jan-30 07:15 pm 8.91 711 6.7
Jan-30 06:15 pm 8.95 720 6.8
Jan-30 05:15 pm 8.98 727 6.9
Jan-30 04:15 pm 9.00 732 6.9
Jan-30 03:15 pm 8.99 730 6.9
Report Generated January 31, 2023 08:37 pm